createdAt,value
2018-11-28T00:06:22.992Z,82.00
2018-11-28T00:16:41.582Z,81.96
2018-11-28T00:27:00.122Z,81.86
2018-11-28T00:37:18.842Z,81.01
2018-11-28T00:47:37.555Z,81.66
2018-11-28T00:57:56.534Z,81.32
2018-11-28T01:08:15.241Z,80.76
2018-11-28T01:18:34.018Z,80.86
2018-11-28T01:28:52.495Z,81.02
2018-11-28T01:39:11.162Z,81.63
2018-11-28T01:49:31.546Z,82.01
2018-11-28T01:59:50.117Z,82.03
2018-11-28T02:10:12.438Z,82.52
2018-11-28T02:20:31.543Z,83.50
2018-11-28T02:30:50.106Z,85.38
2018-11-28T02:41:08.860Z,85.38
2018-11-28T02:51:27.564Z,85.70
2018-11-28T03:01:46.377Z,85.25
2018-11-28T03:12:05.055Z,84.59
2018-11-28T03:22:23.722Z,84.59
2018-11-28T03:32:42.028Z,85.69
2018-11-28T03:43:00.623Z,85.80
2018-11-28T03:53:19.432Z,83.96
2018-11-28T04:03:38.464Z,84.44
2018-11-28T04:13:57.243Z,84.47
2018-11-28T04:24:15.982Z,85.21
2018-11-28T04:34:34.675Z,85.21
2018-11-28T04:44:53.362Z,84.63
2018-11-28T04:55:21.114Z,84.95
2018-11-28T05:05:42.602Z,85.50
2018-11-28T05:16:01.750Z,85.87
2018-11-28T05:26:20.371Z,86.17
2018-11-28T05:36:39.059Z,86.17
2018-11-28T05:47:03.744Z,86.49
2018-11-28T05:57:22.225Z,86.74
2018-11-28T06:07:40.911Z,87.20
2018-11-28T06:17:59.723Z,86.97
2018-11-28T06:28:18.403Z,87.48
2018-11-28T06:38:37.085Z,87.38
2018-11-28T06:49:06.583Z,87.38
2018-11-28T06:59:25.949Z,87.09
2018-11-28T07:09:49.778Z,87.11
2018-11-28T07:20:12.207Z,87.08
2018-11-28T07:30:30.798Z,87.48
2018-11-28T07:40:49.546Z,87.92
2018-11-28T07:51:08.163Z,88.01
2018-11-28T08:01:26.791Z,87.49
2018-11-28T08:11:45.342Z,87.49
2018-11-28T08:22:03.994Z,87.02
2018-11-28T08:32:23.103Z,86.17
2018-11-28T08:42:41.795Z,86.42
2018-11-28T08:53:00.830Z,86.45
2018-11-28T09:03:19.134Z,85.95
2018-11-28T10:07:59.966Z,58.29
2018-11-28T10:18:18.885Z,55.00
2018-11-28T10:28:37.477Z,55.21
2018-11-28T10:38:56.759Z,54.19
2018-11-28T10:49:17.495Z,54.54
2018-11-28T10:59:36.345Z,52.62
2018-11-28T11:10:13.714Z,49.42
2018-11-28T11:20:32.399Z,54.41
2018-11-28T11:30:51.125Z,50.86
2018-11-28T12:01:42.864Z,54.26
2018-11-28T12:12:11.305Z,54.80
2018-11-28T12:22:35.075Z,54.89
2018-11-28T12:32:54.912Z,55.81
2018-11-28T12:43:15.299Z,53.93
2018-11-28T12:53:37.500Z,52.62
2018-11-28T13:04:08.821Z,51.95
2018-11-28T13:14:28.730Z,50.23
2018-11-28T13:24:47.777Z,48.14
2018-11-28T13:35:06.813Z,54.49
2018-11-28T13:45:30.536Z,56.63
2018-11-28T14:06:18.088Z,64.55
2018-11-28T14:16:39.780Z,73.61
2018-11-28T14:26:59.067Z,75.60
2018-11-28T14:37:20.556Z,76.98
2018-11-28T14:47:44.110Z,77.08
2018-11-28T14:58:07.101Z,78.61
2018-11-28T15:08:27.644Z,82.22
2018-11-28T15:18:47.432Z,83.35
2018-11-28T15:29:07.816Z,84.52
2018-11-28T15:39:27.205Z,85.54
2018-11-28T15:49:46.828Z,85.54
2018-11-28T16:00:25.342Z,86.27
2018-11-28T16:10:44.936Z,87.10
2018-11-28T16:21:04.588Z,87.10
2018-11-28T16:31:25.551Z,87.46
2018-11-28T16:41:44.766Z,87.35
2018-11-28T16:52:06.211Z,88.10
2018-11-28T17:02:25.581Z,88.37
2018-11-28T17:12:46.055Z,88.45
2018-11-28T17:23:06.951Z,89.10
2018-11-28T17:33:28.845Z,89.48
2018-11-28T17:43:51.515Z,89.50
2018-11-28T17:54:10.899Z,89.75
2018-11-28T18:04:31.211Z,89.57
2018-11-28T18:14:52.704Z,90.28
2018-11-28T18:25:13.703Z,90.58
2018-11-28T18:35:34.065Z,90.67
2018-11-28T18:45:56.435Z,90.92
2018-11-28T18:56:17.039Z,91.16
2018-11-28T19:06:37.442Z,91.25
2018-11-28T19:17:00.986Z,90.88
2018-11-28T19:27:24.183Z,90.58
2018-11-28T19:37:46.666Z,90.42
2018-11-28T19:48:07.775Z,90.49
2018-11-28T19:58:29.883Z,90.75
2018-11-28T20:08:54.418Z,90.24
2018-11-28T20:19:24.385Z,90.25
2018-11-28T20:29:45.235Z,91.07
2018-11-28T20:40:15.398Z,91.21
2018-11-28T20:50:42.720Z,90.98
2018-11-28T21:01:02.671Z,90.64
2018-11-28T21:11:26.455Z,90.89
2018-11-28T21:21:48.493Z,90.79
2018-11-28T21:32:09.404Z,90.64
2018-11-28T21:42:29.489Z,90.82
2018-11-28T21:52:49.714Z,90.63
2018-11-28T22:03:09.142Z,90.41
2018-11-28T22:13:29.473Z,90.12
2018-11-28T22:23:48.157Z,90.49
2018-11-28T22:34:07.653Z,90.38
2018-11-28T22:44:27.118Z,90.18
2018-11-28T22:54:46.579Z,90.52
2018-11-28T23:05:06.523Z,90.74
2018-11-28T23:15:25.761Z,90.52
2018-11-28T23:25:44.790Z,90.29
2018-11-28T23:36:04.045Z,90.32
2018-11-28T23:46:23.111Z,90.41
2018-11-28T23:56:42.593Z,90.38
